sensor_id;sensor_type;location;lat;lon;timestamp;P1;durP1;ratioP1;P2;durP2;ratioP2
49051;SDS011;34866;48.670;18.260;2022-07-06T00:01:26;9.93;;;4.00;;
49051;SDS011;34866;48.670;18.260;2022-07-06T00:03:52;11.93;;;4.30;;
49051;SDS011;34866;48.670;18.260;2022-07-06T00:06:17;16.40;;;4.25;;
49051;SDS011;34866;48.670;18.260;2022-07-06T00:08:43;14.38;;;4.55;;
49051;SDS011;34866;48.670;18.260;2022-07-06T00:11:15;16.48;;;4.35;;
49051;SDS011;34866;48.670;18.260;2022-07-06T00:13:41;13.25;;;4.10;;
49051;SDS011;34866;48.670;18.260;2022-07-06T00:16:16;20.35;;;4.53;;
49051;SDS011;34866;48.670;18.260;2022-07-06T00:18:42;16.52;;;4.53;;
49051;SDS011;34866;48.670;18.260;2022-07-06T00:21:09;16.15;;;4.57;;
49051;SDS011;34866;48.670;18.260;2022-07-06T00:23:47;20.73;;;4.18;;
49051;SDS011;34866;48.670;18.260;2022-07-06T00:26:16;11.93;;;5.03;;
49051;SDS011;34866;48.670;18.260;2022-07-06T00:28:41;15.38;;;4.03;;
49051;SDS011;34866;48.670;18.260;2022-07-06T00:31:07;16.85;;;4.18;;
49051;SDS011;34866;48.670;18.260;2022-07-06T00:33:32;10.98;;;5.18;;
49051;SDS011;34866;48.670;18.260;2022-07-06T00:35:58;13.02;;;4.20;;
49051;SDS011;34866;48.670;18.260;2022-07-06T00:38:24;26.75;;;4.70;;
49051;SDS011;34866;48.670;18.260;2022-07-06T00:40:50;23.67;;;5.45;;
49051;SDS011;34866;48.670;18.260;2022-07-06T00:43:22;18.27;;;5.38;;
49051;SDS011;34866;48.670;18.260;2022-07-06T00:45:48;17.60;;;4.85;;
49051;SDS011;34866;48.670;18.260;2022-07-06T00:48:19;13.07;;;4.10;;
49051;SDS011;34866;48.670;18.260;2022-07-06T00:50:45;9.52;;;4.13;;
49051;SDS011;34866;48.670;18.260;2022-07-06T00:53:11;10.82;;;5.00;;
49051;SDS011;34866;48.670;18.260;2022-07-06T00:55:38;8.55;;;4.20;;
49051;SDS011;34866;48.670;18.260;2022-07-06T00:58:05;13.90;;;4.18;;
49051;SDS011;34866;48.670;18.260;2022-07-06T01:00:31;15.00;;;4.32;;
49051;SDS011;34866;48.670;18.260;2022-07-06T01:02:57;18.48;;;4.63;;
49051;SDS011;34866;48.670;18.260;2022-07-06T01:05:23;16.33;;;4.80;;
49051;SDS011;34866;48.670;18.260;2022-07-06T01:07:50;13.90;;;4.45;;
49051;SDS011;34866;48.670;18.260;2022-07-06T01:10:17;21.02;;;4.80;;
49051;SDS011;34866;48.670;18.260;2022-07-06T01:12:50;14.40;;;4.60;;
49051;SDS011;34866;48.670;18.260;2022-07-06T01:15:17;15.85;;;4.97;;
49051;SDS011;34866;48.670;18.260;2022-07-06T01:17:45;10.68;;;5.13;;
49051;SDS011;34866;48.670;18.260;2022-07-06T01:20:18;12.88;;;4.63;;
49051;SDS011;34866;48.670;18.260;2022-07-06T01:22:52;14.57;;;4.85;;
49051;SDS011;34866;48.670;18.260;2022-07-06T01:25:19;18.40;;;4.80;;
49051;SDS011;34866;48.670;18.260;2022-07-06T01:27:48;12.05;;;5.40;;
49051;SDS011;34866;48.670;18.260;2022-07-06T01:30:15;19.65;;;5.43;;
49051;SDS011;34866;48.670;18.260;2022-07-06T01:32:42;19.15;;;5.30;;
49051;SDS011;34866;48.670;18.260;2022-07-06T01:35:09;11.65;;;5.35;;
49051;SDS011;34866;48.670;18.260;2022-07-06T01:37:37;19.05;;;5.85;;
49051;SDS011;34866;48.670;18.260;2022-07-06T01:40:04;20.20;;;6.07;;
49051;SDS011;34866;48.670;18.260;2022-07-06T01:42:33;15.85;;;6.03;;
49051;SDS011;34866;48.670;18.260;2022-07-06T01:44:59;25.88;;;5.25;;
49051;SDS011;34866;48.670;18.260;2022-07-06T01:47:26;33.22;;;6.47;;
49051;SDS011;34866;48.670;18.260;2022-07-06T01:49:53;20.55;;;6.35;;
49051;SDS011;34866;48.670;18.260;2022-07-06T01:52:23;20.08;;;5.40;;
49051;SDS011;34866;48.670;18.260;2022-07-06T01:54:55;23.95;;;5.18;;
49051;SDS011;34866;48.670;18.260;2022-07-06T01:57:21;21.05;;;5.30;;
49051;SDS011;34866;48.670;18.260;2022-07-06T01:59:47;18.98;;;5.60;;
49051;SDS011;34866;48.670;18.260;2022-07-06T02:02:16;24.77;;;5.43;;
49051;SDS011;34866;48.670;18.260;2022-07-06T02:05:02;16.42;;;5.95;;
49051;SDS011;34866;48.670;18.260;2022-07-06T02:07:36;20.60;;;6.15;;
49051;SDS011;34866;48.670;18.260;2022-07-06T02:10:05;20.10;;;5.32;;
49051;SDS011;34866;48.670;18.260;2022-07-06T02:12:30;28.95;;;5.80;;
49051;SDS011;34866;48.670;18.260;2022-07-06T02:14:58;14.32;;;5.30;;
49051;SDS011;34866;48.670;18.260;2022-07-06T02:17:25;20.85;;;6.13;;
49051;SDS011;34866;48.670;18.260;2022-07-06T02:19:50;19.83;;;5.63;;
49051;SDS011;34866;48.670;18.260;2022-07-06T02:22:16;18.65;;;5.97;;
49051;SDS011;34866;48.670;18.260;2022-07-06T02:24:42;12.35;;;4.88;;
49051;SDS011;34866;48.670;18.260;2022-07-06T02:27:08;16.38;;;5.10;;
49051;SDS011;34866;48.670;18.260;2022-07-06T02:29:34;21.25;;;6.40;;
49051;SDS011;34866;48.670;18.260;2022-07-06T02:32:00;17.00;;;5.35;;
49051;SDS011;34866;48.670;18.260;2022-07-06T02:34:26;20.73;;;5.18;;
49051;SDS011;34866;48.670;18.260;2022-07-06T02:36:51;35.40;;;6.45;;
49051;SDS011;34866;48.670;18.260;2022-07-06T02:39:17;25.40;;;6.70;;
49051;SDS011;34866;48.670;18.260;2022-07-06T02:41:43;21.60;;;6.20;;
49051;SDS011;34866;48.670;18.260;2022-07-06T02:44:29;22.30;;;4.82;;
49051;SDS011;34866;48.670;18.260;2022-07-06T02:46:55;32.75;;;6.28;;
49051;SDS011;34866;48.670;18.260;2022-07-06T02:49:20;18.73;;;5.47;;
49051;SDS011;34866;48.670;18.260;2022-07-06T02:51:46;16.30;;;5.32;;
49051;SDS011;34866;48.670;18.260;2022-07-06T02:54:14;27.70;;;5.30;;
49051;SDS011;34866;48.670;18.260;2022-07-06T02:56:39;27.92;;;5.95;;
49051;SDS011;34866;48.670;18.260;2022-07-06T02:59:10;12.02;;;5.03;;
49051;SDS011;34866;48.670;18.260;2022-07-06T03:01:36;28.17;;;6.97;;
49051;SDS011;34866;48.670;18.260;2022-07-06T03:04:02;35.22;;;6.82;;
49051;SDS011;34866;48.670;18.260;2022-07-06T03:06:27;13.63;;;6.95;;
49051;SDS011;34866;48.670;18.260;2022-07-06T03:08:56;31.75;;;8.23;;
49051;SDS011;34866;48.670;18.260;2022-07-06T03:11:30;22.40;;;7.00;;
49051;SDS011;34866;48.670;18.260;2022-07-06T03:14:03;18.60;;;6.70;;
49051;SDS011;34866;48.670;18.260;2022-07-06T03:16:29;20.73;;;8.38;;
49051;SDS011;34866;48.670;18.260;2022-07-06T03:18:55;33.33;;;8.85;;
49051;SDS011;34866;48.670;18.260;2022-07-06T03:21:22;22.02;;;8.05;;
49051;SDS011;34866;48.670;18.260;2022-07-06T03:23:49;25.52;;;8.27;;
49051;SDS011;34866;48.670;18.260;2022-07-06T03:26:18;15.77;;;8.25;;
49051;SDS011;34866;48.670;18.260;2022-07-06T03:28:43;21.45;;;8.35;;
49051;SDS011;34866;48.670;18.260;2022-07-06T03:31:10;23.63;;;8.35;;
49051;SDS011;34866;48.670;18.260;2022-07-06T03:33:45;19.65;;;8.27;;
49051;SDS011;34866;48.670;18.260;2022-07-06T03:36:11;25.75;;;8.38;;
49051;SDS011;34866;48.670;18.260;2022-07-06T03:38:37;17.40;;;9.00;;
49051;SDS011;34866;48.670;18.260;2022-07-06T03:41:03;25.60;;;9.00;;
49051;SDS011;34866;48.670;18.260;2022-07-06T03:43:44;15.63;;;8.10;;
49051;SDS011;34866;48.670;18.260;2022-07-06T03:46:11;16.10;;;7.93;;
49051;SDS011;34866;48.670;18.260;2022-07-06T03:48:37;23.20;;;8.68;;
49051;SDS011;34866;48.670;18.260;2022-07-06T03:51:03;23.40;;;8.90;;
49051;SDS011;34866;48.670;18.260;2022-07-06T03:53:30;13.65;;;6.85;;
49051;SDS011;34866;48.670;18.260;2022-07-06T03:55:57;20.73;;;9.23;;
49051;SDS011;34866;48.670;18.260;2022-07-06T03:59:01;19.52;;;8.07;;
49051;SDS011;34866;48.670;18.260;2022-07-06T04:01:30;20.88;;;8.93;;
49051;SDS011;34866;48.670;18.260;2022-07-06T04:03:58;17.42;;;8.30;;
49051;SDS011;34866;48.670;18.260;2022-07-06T04:06:24;14.07;;;8.50;;
49051;SDS011;34866;48.670;18.260;2022-07-06T04:08:50;15.70;;;8.68;;
49051;SDS011;34866;48.670;18.260;2022-07-06T04:11:16;15.13;;;7.93;;
49051;SDS011;34866;48.670;18.260;2022-07-06T04:13:45;14.60;;;7.97;;
49051;SDS011;34866;48.670;18.260;2022-07-06T04:16:10;16.23;;;7.72;;
49051;SDS011;34866;48.670;18.260;2022-07-06T04:18:38;14.75;;;8.15;;
49051;SDS011;34866;48.670;18.260;2022-07-06T04:21:09;10.80;;;7.10;;
49051;SDS011;34866;48.670;18.260;2022-07-06T04:23:35;15.38;;;7.57;;
49051;SDS011;34866;48.670;18.260;2022-07-06T04:26:01;16.77;;;7.88;;
49051;SDS011;34866;48.670;18.260;2022-07-06T04:28:29;16.40;;;7.55;;
49051;SDS011;34866;48.670;18.260;2022-07-06T04:31:01;17.45;;;6.90;;
49051;SDS011;34866;48.670;18.260;2022-07-06T04:33:27;11.15;;;7.40;;
49051;SDS011;34866;48.670;18.260;2022-07-06T04:35:52;12.85;;;7.43;;
49051;SDS011;34866;48.670;18.260;2022-07-06T04:38:19;14.55;;;7.15;;
49051;SDS011;34866;48.670;18.260;2022-07-06T04:40:46;11.55;;;6.90;;
49051;SDS011;34866;48.670;18.260;2022-07-06T04:43:15;14.15;;;7.50;;
49051;SDS011;34866;48.670;18.260;2022-07-06T04:45:41;12.10;;;7.10;;
49051;SDS011;34866;48.670;18.260;2022-07-06T04:48:06;10.70;;;6.75;;
49051;SDS011;34866;48.670;18.260;2022-07-06T04:50:33;18.23;;;7.75;;
49051;SDS011;34866;48.670;18.260;2022-07-06T04:52:59;14.88;;;7.10;;
49051;SDS011;34866;48.670;18.260;2022-07-06T04:55:25;17.83;;;7.93;;
49051;SDS011;34866;48.670;18.260;2022-07-06T04:57:50;9.15;;;6.93;;
49051;SDS011;34866;48.670;18.260;2022-07-06T05:00:17;13.25;;;6.57;;
49051;SDS011;34866;48.670;18.260;2022-07-06T05:02:46;12.80;;;7.20;;
49051;SDS011;34866;48.670;18.260;2022-07-06T05:05:11;11.63;;;5.88;;
49051;SDS011;34866;48.670;18.260;2022-07-06T05:07:37;12.52;;;6.93;;
49051;SDS011;34866;48.670;18.260;2022-07-06T05:10:09;10.98;;;6.50;;
49051;SDS011;34866;48.670;18.260;2022-07-06T05:12:36;13.57;;;8.05;;
49051;SDS011;34866;48.670;18.260;2022-07-06T05:15:05;9.43;;;6.22;;
49051;SDS011;34866;48.670;18.260;2022-07-06T05:17:31;7.05;;;4.95;;
49051;SDS011;34866;48.670;18.260;2022-07-06T05:19:57;12.05;;;5.50;;
49051;SDS011;34866;48.670;18.260;2022-07-06T05:22:22;11.32;;;5.05;;
49051;SDS011;34866;48.670;18.260;2022-07-06T05:24:49;8.00;;;5.22;;
49051;SDS011;34866;48.670;18.260;2022-07-06T05:27:16;7.78;;;5.57;;
49051;SDS011;34866;48.670;18.260;2022-07-06T05:29:42;11.85;;;5.03;;
49051;SDS011;34866;48.670;18.260;2022-07-06T05:32:31;10.85;;;6.03;;
49051;SDS011;34866;48.670;18.260;2022-07-06T05:34:57;6.80;;;4.60;;
49051;SDS011;34866;48.670;18.260;2022-07-06T05:37:23;7.85;;;4.95;;
49051;SDS011;34866;48.670;18.260;2022-07-06T05:39:49;10.18;;;5.95;;
49051;SDS011;34866;48.670;18.260;2022-07-06T05:42:15;8.13;;;5.53;;
49051;SDS011;34866;48.670;18.260;2022-07-06T05:44:42;12.10;;;5.20;;
49051;SDS011;34866;48.670;18.260;2022-07-06T05:47:07;7.63;;;5.10;;
49051;SDS011;34866;48.670;18.260;2022-07-06T05:49:52;8.15;;;5.40;;
49051;SDS011;34866;48.670;18.260;2022-07-06T05:52:38;9.23;;;5.07;;
49051;SDS011;34866;48.670;18.260;2022-07-06T05:55:04;7.45;;;5.05;;
49051;SDS011;34866;48.670;18.260;2022-07-06T05:57:30;7.28;;;5.18;;
49051;SDS011;34866;48.670;18.260;2022-07-06T05:59:56;8.85;;;5.45;;
49051;SDS011;34866;48.670;18.260;2022-07-06T06:02:42;10.20;;;5.22;;
49051;SDS011;34866;48.670;18.260;2022-07-06T06:05:08;7.57;;;5.03;;
49051;SDS011;34866;48.670;18.260;2022-07-06T06:07:36;7.55;;;4.95;;
49051;SDS011;34866;48.670;18.260;2022-07-06T06:10:04;9.10;;;5.13;;
49051;SDS011;34866;48.670;18.260;2022-07-06T06:12:33;8.82;;;5.28;;
49051;SDS011;34866;48.670;18.260;2022-07-06T06:14:59;9.13;;;5.55;;
49051;SDS011;34866;48.670;18.260;2022-07-06T06:17:25;9.05;;;5.45;;
49051;SDS011;34866;48.670;18.260;2022-07-06T06:19:51;8.30;;;5.88;;
49051;SDS011;34866;48.670;18.260;2022-07-06T06:22:20;11.27;;;5.82;;
49051;SDS011;34866;48.670;18.260;2022-07-06T06:24:47;17.27;;;5.95;;
49051;SDS011;34866;48.670;18.260;2022-07-06T06:27:13;9.52;;;5.60;;
49051;SDS011;34866;48.670;18.260;2022-07-06T06:29:39;8.32;;;5.65;;
49051;SDS011;34866;48.670;18.260;2022-07-06T06:32:06;8.13;;;5.15;;
49051;SDS011;34866;48.670;18.260;2022-07-06T06:34:33;8.32;;;5.53;;
49051;SDS011;34866;48.670;18.260;2022-07-06T06:37:00;9.30;;;5.68;;
49051;SDS011;34866;48.670;18.260;2022-07-06T06:39:30;8.05;;;5.50;;
49051;SDS011;34866;48.670;18.260;2022-07-06T06:41:55;8.38;;;5.53;;
49051;SDS011;34866;48.670;18.260;2022-07-06T06:44:21;8.23;;;5.40;;
49051;SDS011;34866;48.670;18.260;2022-07-06T06:46:50;8.45;;;5.97;;
49051;SDS011;34866;48.670;18.260;2022-07-06T06:49:19;8.50;;;5.20;;
49051;SDS011;34866;48.670;18.260;2022-07-06T06:51:45;11.05;;;6.18;;
49051;SDS011;34866;48.670;18.260;2022-07-06T06:54:11;13.73;;;5.55;;
49051;SDS011;34866;48.670;18.260;2022-07-06T06:56:38;10.00;;;5.72;;
49051;SDS011;34866;48.670;18.260;2022-07-06T06:59:03;13.50;;;6.03;;
49051;SDS011;34866;48.670;18.260;2022-07-06T07:01:30;12.13;;;6.25;;
49051;SDS011;34866;48.670;18.260;2022-07-06T07:03:57;13.40;;;5.85;;
49051;SDS011;34866;48.670;18.260;2022-07-06T07:06:24;9.85;;;5.90;;
49051;SDS011;34866;48.670;18.260;2022-07-06T07:08:50;9.65;;;6.25;;
49051;SDS011;34866;48.670;18.260;2022-07-06T07:11:21;9.77;;;6.07;;
49051;SDS011;34866;48.670;18.260;2022-07-06T07:13:48;11.07;;;6.80;;
49051;SDS011;34866;48.670;18.260;2022-07-06T07:16:15;9.73;;;5.88;;
49051;SDS011;34866;48.670;18.260;2022-07-06T07:18:49;11.82;;;6.32;;
49051;SDS011;34866;48.670;18.260;2022-07-06T07:21:17;15.48;;;6.47;;
49051;SDS011;34866;48.670;18.260;2022-07-06T07:23:43;10.93;;;6.40;;
49051;SDS011;34866;48.670;18.260;2022-07-06T07:26:09;8.65;;;5.88;;
49051;SDS011;34866;48.670;18.260;2022-07-06T07:28:34;8.10;;;5.20;;
49051;SDS011;34866;48.670;18.260;2022-07-06T07:31:20;13.32;;;5.57;;
49051;SDS011;34866;48.670;18.260;2022-07-06T07:33:48;12.20;;;6.10;;
49051;SDS011;34866;48.670;18.260;2022-07-06T07:36:14;9.38;;;5.93;;
49051;SDS011;34866;48.670;18.260;2022-07-06T07:38:40;12.77;;;6.45;;
49051;SDS011;34866;48.670;18.260;2022-07-06T07:41:05;12.82;;;5.63;;
49051;SDS011;34866;48.670;18.260;2022-07-06T07:43:31;12.90;;;5.85;;
49051;SDS011;34866;48.670;18.260;2022-07-06T07:45:58;10.07;;;5.72;;
49051;SDS011;34866;48.670;18.260;2022-07-06T07:48:24;7.82;;;5.57;;
49051;SDS011;34866;48.670;18.260;2022-07-06T07:50:50;9.82;;;5.65;;
49051;SDS011;34866;48.670;18.260;2022-07-06T07:53:15;9.10;;;5.68;;
49051;SDS011;34866;48.670;18.260;2022-07-06T07:56:01;8.85;;;5.68;;
49051;SDS011;34866;48.670;18.260;2022-07-06T07:58:50;8.30;;;4.80;;
49051;SDS011;34866;48.670;18.260;2022-07-06T08:01:15;8.65;;;5.72;;
49051;SDS011;34866;48.670;18.260;2022-07-06T08:03:41;8.60;;;5.43;;
49051;SDS011;34866;48.670;18.260;2022-07-06T08:06:07;9.93;;;5.40;;
49051;SDS011;34866;48.670;18.260;2022-07-06T08:08:32;9.55;;;4.70;;
49051;SDS011;34866;48.670;18.260;2022-07-06T08:10:58;8.88;;;4.85;;
49051;SDS011;34866;48.670;18.260;2022-07-06T08:13:25;9.27;;;4.63;;
49051;SDS011;34866;48.670;18.260;2022-07-06T08:15:51;11.88;;;4.70;;
49051;SDS011;34866;48.670;18.260;2022-07-06T08:18:19;8.75;;;4.78;;
49051;SDS011;34866;48.670;18.260;2022-07-06T08:20:47;11.10;;;4.70;;
49051;SDS011;34866;48.670;18.260;2022-07-06T08:23:15;8.00;;;4.68;;
49051;SDS011;34866;48.670;18.260;2022-07-06T08:25:42;7.22;;;4.22;;
49051;SDS011;34866;48.670;18.260;2022-07-06T08:28:09;14.52;;;4.15;;
49051;SDS011;34866;48.670;18.260;2022-07-06T08:30:45;8.85;;;4.00;;
49051;SDS011;34866;48.670;18.260;2022-07-06T08:33:13;6.20;;;3.78;;
49051;SDS011;34866;48.670;18.260;2022-07-06T08:35:39;8.43;;;4.40;;
49051;SDS011;34866;48.670;18.260;2022-07-06T08:38:09;8.23;;;4.03;;
49051;SDS011;34866;48.670;18.260;2022-07-06T08:40:34;8.90;;;3.80;;
49051;SDS011;34866;48.670;18.260;2022-07-06T08:43:04;7.30;;;3.90;;
49051;SDS011;34866;48.670;18.260;2022-07-06T08:45:38;6.97;;;3.53;;
49051;SDS011;34866;48.670;18.260;2022-07-06T08:48:05;5.72;;;3.42;;
49051;SDS011;34866;48.670;18.260;2022-07-06T08:50:38;7.38;;;3.08;;
49051;SDS011;34866;48.670;18.260;2022-07-06T08:53:07;5.13;;;3.08;;
49051;SDS011;34866;48.670;18.260;2022-07-06T08:55:33;6.68;;;3.55;;
49051;SDS011;34866;48.670;18.260;2022-07-06T08:58:01;5.75;;;2.92;;
49051;SDS011;34866;48.670;18.260;2022-07-06T09:00:27;5.60;;;3.30;;
49051;SDS011;34866;48.670;18.260;2022-07-06T09:03:01;6.03;;;3.50;;
49051;SDS011;34866;48.670;18.260;2022-07-06T09:05:29;7.60;;;3.47;;
49051;SDS011;34866;48.670;18.260;2022-07-06T09:07:56;7.93;;;3.40;;
49051;SDS011;34866;48.670;18.260;2022-07-06T09:10:22;8.43;;;3.33;;
49051;SDS011;34866;48.670;18.260;2022-07-06T09:12:49;4.93;;;3.00;;
49051;SDS011;34866;48.670;18.260;2022-07-06T09:15:15;9.45;;;3.10;;
49051;SDS011;34866;48.670;18.260;2022-07-06T09:17:42;5.88;;;3.08;;
49051;SDS011;34866;48.670;18.260;2022-07-06T09:20:12;5.80;;;3.20;;
49051;SDS011;34866;48.670;18.260;2022-07-06T09:22:39;8.30;;;3.28;;
49051;SDS011;34866;48.670;18.260;2022-07-06T09:25:15;6.63;;;3.55;;
49051;SDS011;34866;48.670;18.260;2022-07-06T09:27:42;6.50;;;3.53;;
49051;SDS011;34866;48.670;18.260;2022-07-06T09:30:14;12.75;;;4.13;;
49051;SDS011;34866;48.670;18.260;2022-07-06T09:32:49;5.15;;;3.40;;
49051;SDS011;34866;48.670;18.260;2022-07-06T09:35:29;7.05;;;3.38;;
49051;SDS011;34866;48.670;18.260;2022-07-06T09:38:04;6.25;;;3.55;;
49051;SDS011;34866;48.670;18.260;2022-07-06T09:40:34;5.32;;;2.85;;
49051;SDS011;34866;48.670;18.260;2022-07-06T09:48:34;6.88;;;3.10;;
49051;SDS011;34866;48.670;18.260;2022-07-06T09:51:01;7.50;;;3.33;;
49051;SDS011;34866;48.670;18.260;2022-07-06T09:53:28;7.57;;;3.10;;
49051;SDS011;34866;48.670;18.260;2022-07-06T09:55:55;6.95;;;3.22;;
49051;SDS011;34866;48.670;18.260;2022-07-06T09:58:23;4.90;;;3.28;;
49051;SDS011;34866;48.670;18.260;2022-07-06T10:00:58;7.68;;;2.80;;
49051;SDS011;34866;48.670;18.260;2022-07-06T10:03:27;6.82;;;3.08;;
49051;SDS011;34866;48.670;18.260;2022-07-06T10:05:54;6.57;;;3.15;;
49051;SDS011;34866;48.670;18.260;2022-07-06T10:08:21;5.40;;;2.78;;
49051;SDS011;34866;48.670;18.260;2022-07-06T10:11:08;10.40;;;3.72;;
49051;SDS011;34866;48.670;18.260;2022-07-06T10:13:39;9.00;;;3.20;;
49051;SDS011;34866;48.670;18.260;2022-07-06T10:16:07;8.93;;;3.08;;
49051;SDS011;34866;48.670;18.260;2022-07-06T10:18:35;6.57;;;3.67;;
49051;SDS011;34866;48.670;18.260;2022-07-06T10:21:21;6.50;;;3.33;;
49051;SDS011;34866;48.670;18.260;2022-07-06T10:23:51;10.05;;;3.20;;
49051;SDS011;34866;48.670;18.260;2022-07-06T10:26:18;9.30;;;3.05;;
49051;SDS011;34866;48.670;18.260;2022-07-06T10:28:46;4.80;;;2.67;;
49051;SDS011;34866;48.670;18.260;2022-07-06T10:31:15;11.63;;;1.73;;
49051;SDS011;34866;48.670;18.260;2022-07-06T10:33:42;10.82;;;1.38;;
49051;SDS011;34866;48.670;18.260;2022-07-06T10:36:09;10.50;;;2.10;;
49051;SDS011;34866;48.670;18.260;2022-07-06T10:38:37;9.45;;;1.20;;
49051;SDS011;34866;48.670;18.260;2022-07-06T10:41:16;3.47;;;1.10;;
49051;SDS011;34866;48.670;18.260;2022-07-06T10:43:56;15.60;;;1.45;;
49051;SDS011;34866;48.670;18.260;2022-07-06T10:46:59;5.03;;;1.50;;
49051;SDS011;34866;48.670;18.260;2022-07-06T10:49:50;23.63;;;1.63;;
49051;SDS011;34866;48.670;18.260;2022-07-06T10:55:38;4.40;;;0.98;;
49051;SDS011;34866;48.670;18.260;2022-07-06T10:58:51;2.22;;;0.95;;
49051;SDS011;34866;48.670;18.260;2022-07-06T11:01:20;5.15;;;1.40;;
49051;SDS011;34866;48.670;18.260;2022-07-06T11:04:35;10.25;;;1.63;;
49051;SDS011;34866;48.670;18.260;2022-07-06T11:07:19;4.15;;;1.60;;
49051;SDS011;34866;48.670;18.260;2022-07-06T11:29:01;12.07;;;4.03;;
49051;SDS011;34866;48.670;18.260;2022-07-06T11:35:29;7.25;;;4.22;;
49051;SDS011;34866;48.670;18.260;2022-07-06T11:41:37;11.60;;;5.75;;
49051;SDS011;34866;48.670;18.260;2022-07-06T11:47:45;9.82;;;5.45;;
49051;SDS011;34866;48.670;18.260;2022-07-06T11:54:26;6.38;;;4.38;;
49051;SDS011;34866;48.670;18.260;2022-07-06T11:57:32;9.65;;;4.10;;
49051;SDS011;34866;48.670;18.260;2022-07-06T12:06:43;5.47;;;3.70;;
49051;SDS011;34866;48.670;18.260;2022-07-06T12:09:39;11.60;;;3.65;;
49051;SDS011;34866;48.670;18.260;2022-07-06T12:12:31;7.68;;;2.70;;
49051;SDS011;34866;48.670;18.260;2022-07-06T12:15:15;4.63;;;2.80;;
49051;SDS011;34866;48.670;18.260;2022-07-06T12:18:10;7.55;;;2.80;;
49051;SDS011;34866;48.670;18.260;2022-07-06T12:24:16;3.97;;;2.33;;
49051;SDS011;34866;48.670;18.260;2022-07-06T12:27:22;7.57;;;2.75;;
49051;SDS011;34866;48.670;18.260;2022-07-06T12:33:14;4.97;;;2.60;;
49051;SDS011;34866;48.670;18.260;2022-07-06T12:35:51;4.45;;;2.35;;
49051;SDS011;34866;48.670;18.260;2022-07-06T12:38:59;5.07;;;2.40;;
49051;SDS011;34866;48.670;18.260;2022-07-06T12:42:06;4.00;;;2.17;;
49051;SDS011;34866;48.670;18.260;2022-07-06T12:44:48;10.50;;;2.25;;
49051;SDS011;34866;48.670;18.260;2022-07-06T12:53:34;5.85;;;2.45;;
49051;SDS011;34866;48.670;18.260;2022-07-06T13:00:20;2.58;;;1.27;;
49051;SDS011;34866;48.670;18.260;2022-07-06T13:03:55;2.30;;;1.20;;
49051;SDS011;34866;48.670;18.260;2022-07-06T13:16:54;3.22;;;1.38;;
49051;SDS011;34866;48.670;18.260;2022-07-06T13:19:46;4.00;;;0.90;;
49051;SDS011;34866;48.670;18.260;2022-07-06T13:28:39;2.43;;;1.00;;
49051;SDS011;34866;48.670;18.260;2022-07-06T13:37:19;1.55;;;0.80;;
49051;SDS011;34866;48.670;18.260;2022-07-06T13:39:54;1.25;;;0.75;;
49051;SDS011;34866;48.670;18.260;2022-07-06T13:45:39;4.55;;;0.95;;
49051;SDS011;34866;48.670;18.260;2022-07-06T13:51:32;2.05;;;1.05;;
49051;SDS011;34866;48.670;18.260;2022-07-06T13:54:43;2.28;;;1.08;;
49051;SDS011;34866;48.670;18.260;2022-07-06T13:57:46;2.35;;;1.00;;
49051;SDS011;34866;48.670;18.260;2022-07-06T14:00:14;2.60;;;1.13;;
49051;SDS011;34866;48.670;18.260;2022-07-06T14:05:56;3.50;;;1.10;;
49051;SDS011;34866;48.670;18.260;2022-07-06T14:12:02;2.35;;;1.08;;
49051;SDS011;34866;48.670;18.260;2022-07-06T14:14:31;6.55;;;1.00;;
49051;SDS011;34866;48.670;18.260;2022-07-06T14:17:02;3.10;;;1.10;;
49051;SDS011;34866;48.670;18.260;2022-07-06T14:20:16;3.58;;;1.38;;
49051;SDS011;34866;48.670;18.260;2022-07-06T14:22:43;4.40;;;1.30;;
49051;SDS011;34866;48.670;18.260;2022-07-06T14:25:17;7.72;;;1.42;;
49051;SDS011;34866;48.670;18.260;2022-07-06T14:27:44;2.60;;;1.13;;
49051;SDS011;34866;48.670;18.260;2022-07-06T14:30:27;2.72;;;1.10;;
49051;SDS011;34866;48.670;18.260;2022-07-06T14:35:58;2.50;;;1.10;;
49051;SDS011;34866;48.670;18.260;2022-07-06T14:38:27;1.92;;;1.13;;
49051;SDS011;34866;48.670;18.260;2022-07-06T14:46:16;2.58;;;1.27;;
49051;SDS011;34866;48.670;18.260;2022-07-06T14:49:30;2.35;;;1.20;;
49051;SDS011;34866;48.670;18.260;2022-07-06T14:51:58;1.60;;;0.88;;
49051;SDS011;34866;48.670;18.260;2022-07-06T14:54:34;2.30;;;1.02;;
49051;SDS011;34866;48.670;18.260;2022-07-06T14:57:01;3.25;;;1.10;;
49051;SDS011;34866;48.670;18.260;2022-07-06T14:59:47;3.00;;;1.13;;
49051;SDS011;34866;48.670;18.260;2022-07-06T15:08:44;1.80;;;1.00;;
49051;SDS011;34866;48.670;18.260;2022-07-06T15:11:45;2.05;;;0.93;;
49051;SDS011;34866;48.670;18.260;2022-07-06T15:17:17;5.82;;;1.00;;
49051;SDS011;34866;48.670;18.260;2022-07-06T15:20:04;4.43;;;1.15;;
49051;SDS011;34866;48.670;18.260;2022-07-06T15:22:32;3.15;;;1.23;;
49051;SDS011;34866;48.670;18.260;2022-07-06T15:28:27;1.40;;;0.70;;
49051;SDS011;34866;48.670;18.260;2022-07-06T15:31:20;3.20;;;0.80;;
49051;SDS011;34866;48.670;18.260;2022-07-06T15:34:26;1.88;;;0.93;;
49051;SDS011;34866;48.670;18.260;2022-07-06T15:37:23;8.10;;;1.02;;
49051;SDS011;34866;48.670;18.260;2022-07-06T15:39:50;2.05;;;0.82;;
49051;SDS011;34866;48.670;18.260;2022-07-06T15:46:23;2.15;;;1.00;;
49051;SDS011;34866;48.670;18.260;2022-07-06T15:49:29;5.38;;;0.82;;
49051;SDS011;34866;48.670;18.260;2022-07-06T15:54:57;7.18;;;1.00;;
49051;SDS011;34866;48.670;18.260;2022-07-06T15:58:10;1.88;;;0.77;;
49051;SDS011;34866;48.670;18.260;2022-07-06T16:01:20;1.67;;;1.00;;
49051;SDS011;34866;48.670;18.260;2022-07-06T16:07:45;3.28;;;1.00;;
49051;SDS011;34866;48.670;18.260;2022-07-06T16:11:12;2.25;;;0.75;;
49051;SDS011;34866;48.670;18.260;2022-07-06T16:17:37;2.13;;;1.08;;
49051;SDS011;34866;48.670;18.260;2022-07-06T16:36:39;1.25;;;0.68;;
49051;SDS011;34866;48.670;18.260;2022-07-06T16:39:45;2.50;;;0.80;;
49051;SDS011;34866;48.670;18.260;2022-07-06T16:51:56;3.85;;;1.00;;
49051;SDS011;34866;48.670;18.260;2022-07-06T16:57:07;3.15;;;0.90;;
49051;SDS011;34866;48.670;18.260;2022-07-06T17:02:31;2.78;;;1.00;;
49051;SDS011;34866;48.670;18.260;2022-07-06T17:05:14;3.22;;;0.88;;
49051;SDS011;34866;48.670;18.260;2022-07-06T17:07:57;3.80;;;1.27;;
49051;SDS011;34866;48.670;18.260;2022-07-06T17:11:06;8.18;;;1.90;;
49051;SDS011;34866;48.670;18.260;2022-07-06T17:21:10;2.03;;;0.90;;
49051;SDS011;34866;48.670;18.260;2022-07-06T17:29:25;5.93;;;1.17;;
49051;SDS011;34866;48.670;18.260;2022-07-06T17:32:58;3.80;;;1.00;;
49051;SDS011;34866;48.670;18.260;2022-07-06T17:41:42;2.22;;;1.08;;
49051;SDS011;34866;48.670;18.260;2022-07-06T17:44:45;1.70;;;0.95;;
49051;SDS011;34866;48.670;18.260;2022-07-06T17:48:19;5.10;;;0.90;;
49051;SDS011;34866;48.670;18.260;2022-07-06T17:51:50;2.45;;;1.17;;
49051;SDS011;34866;48.670;18.260;2022-07-06T17:54:59;2.42;;;1.00;;
49051;SDS011;34866;48.670;18.260;2022-07-06T18:01:54;2.33;;;1.27;;
49051;SDS011;34866;48.670;18.260;2022-07-06T18:05:04;2.85;;;1.30;;
49051;SDS011;34866;48.670;18.260;2022-07-06T18:07:34;2.63;;;1.23;;
49051;SDS011;34866;48.670;18.260;2022-07-06T18:10:06;3.75;;;1.60;;
49051;SDS011;34866;48.670;18.260;2022-07-06T18:20:23;5.82;;;1.30;;
49051;SDS011;34866;48.670;18.260;2022-07-06T18:23:47;2.53;;;1.30;;
49051;SDS011;34866;48.670;18.260;2022-07-06T18:50:24;7.82;;;1.63;;